sensor_id;sensor_type;location;lat;lon;timestamp;P1;durP1;ratioP1;P2;durP2;ratioP2
75928;SDS011;64606;44.062;2.986;2023-03-03T00:02:04;45.85;;;26.05;;
75928;SDS011;64606;44.062;2.986;2023-03-03T00:04:30;48.60;;;26.30;;
75928;SDS011;64606;44.062;2.986;2023-03-03T00:06:56;45.85;;;26.30;;
75928;SDS011;64606;44.062;2.986;2023-03-03T00:09:23;45.08;;;26.40;;
75928;SDS011;64606;44.062;2.986;2023-03-03T00:11:49;49.60;;;28.80;;
75928;SDS011;64606;44.062;2.986;2023-03-03T00:14:24;49.40;;;26.92;;
75928;SDS011;64606;44.062;2.986;2023-03-03T00:16:50;64.40;;;36.63;;
75928;SDS011;64606;44.062;2.986;2023-03-03T00:19:17;69.22;;;39.33;;
75928;SDS011;64606;44.062;2.986;2023-03-03T00:21:45;72.78;;;41.28;;
75928;SDS011;64606;44.062;2.986;2023-03-03T00:27:16;45.05;;;26.25;;
75928;SDS011;64606;44.062;2.986;2023-03-03T00:29:48;43.00;;;25.50;;
75928;SDS011;64606;44.062;2.986;2023-03-03T00:32:30;51.75;;;30.67;;
75928;SDS011;64606;44.062;2.986;2023-03-03T00:35:16;50.17;;;26.88;;
75928;SDS011;64606;44.062;2.986;2023-03-03T00:37:44;42.35;;;24.63;;
75928;SDS011;64606;44.062;2.986;2023-03-03T00:42:37;48.50;;;27.30;;
75928;SDS011;64606;44.062;2.986;2023-03-03T00:45:04;42.28;;;24.88;;
75928;SDS011;64606;44.062;2.986;2023-03-03T00:47:43;45.15;;;25.63;;
75928;SDS011;64606;44.062;2.986;2023-03-03T00:52:38;53.45;;;28.17;;
75928;SDS011;64606;44.062;2.986;2023-03-03T00:55:06;58.60;;;31.40;;
75928;SDS011;64606;44.062;2.986;2023-03-03T00:57:32;77.32;;;45.53;;
75928;SDS011;64606;44.062;2.986;2023-03-03T00:59:58;78.97;;;42.85;;
75928;SDS011;64606;44.062;2.986;2023-03-03T01:02:24;69.88;;;36.55;;
75928;SDS011;64606;44.062;2.986;2023-03-03T01:04:51;66.78;;;33.33;;
75928;SDS011;64606;44.062;2.986;2023-03-03T01:07:20;59.67;;;31.05;;
75928;SDS011;64606;44.062;2.986;2023-03-03T01:09:46;53.10;;;28.17;;
75928;SDS011;64606;44.062;2.986;2023-03-03T01:12:13;42.13;;;24.52;;
75928;SDS011;64606;44.062;2.986;2023-03-03T01:14:39;49.83;;;25.55;;
75928;SDS011;64606;44.062;2.986;2023-03-03T01:17:05;48.17;;;26.45;;
75928;SDS011;64606;44.062;2.986;2023-03-03T01:19:31;52.10;;;27.00;;
75928;SDS011;64606;44.062;2.986;2023-03-03T01:21:58;46.90;;;25.48;;
75928;SDS011;64606;44.062;2.986;2023-03-03T01:24:24;55.40;;;27.27;;
75928;SDS011;64606;44.062;2.986;2023-03-03T01:26:50;46.80;;;26.10;;
75928;SDS011;64606;44.062;2.986;2023-03-03T01:29:16;47.83;;;25.33;;
75928;SDS011;64606;44.062;2.986;2023-03-03T01:31:42;54.83;;;28.25;;
75928;SDS011;64606;44.062;2.986;2023-03-03T01:34:08;65.70;;;30.85;;
75928;SDS011;64606;44.062;2.986;2023-03-03T01:36:34;60.92;;;30.05;;
75928;SDS011;64606;44.062;2.986;2023-03-03T01:39:01;68.10;;;31.38;;
75928;SDS011;64606;44.062;2.986;2023-03-03T01:41:28;71.10;;;32.75;;
75928;SDS011;64606;44.062;2.986;2023-03-03T01:43:57;75.05;;;37.72;;
75928;SDS011;64606;44.062;2.986;2023-03-03T01:48:55;73.43;;;36.53;;
75928;SDS011;64606;44.062;2.986;2023-03-03T01:51:30;55.53;;;29.00;;
75928;SDS011;64606;44.062;2.986;2023-03-03T01:53:58;47.60;;;26.73;;
75928;SDS011;64606;44.062;2.986;2023-03-03T01:56:25;76.55;;;33.75;;
75928;SDS011;64606;44.062;2.986;2023-03-03T01:58:52;55.95;;;28.95;;
75928;SDS011;64606;44.062;2.986;2023-03-03T02:01:24;52.92;;;28.52;;
75928;SDS011;64606;44.062;2.986;2023-03-03T02:03:51;48.08;;;26.33;;
75928;SDS011;64606;44.062;2.986;2023-03-03T02:06:18;46.55;;;26.95;;
75928;SDS011;64606;44.062;2.986;2023-03-03T02:09:08;46.45;;;26.73;;
75928;SDS011;64606;44.062;2.986;2023-03-03T02:11:31;171.48;;;66.60;;
75928;SDS011;64606;44.062;2.986;2023-03-03T02:13:59;113.65;;;51.10;;
75928;SDS011;64606;44.062;2.986;2023-03-03T02:16:25;109.60;;;48.53;;
75928;SDS011;64606;44.062;2.986;2023-03-03T02:18:51;148.07;;;60.28;;
75928;SDS011;64606;44.062;2.986;2023-03-03T02:21:18;155.23;;;65.25;;
75928;SDS011;64606;44.062;2.986;2023-03-03T02:26:27;112.55;;;46.22;;
75928;SDS011;64606;44.062;2.986;2023-03-03T02:28:53;82.63;;;37.58;;
75928;SDS011;64606;44.062;2.986;2023-03-03T02:31:21;80.22;;;35.70;;
75928;SDS011;64606;44.062;2.986;2023-03-03T02:33:48;74.05;;;33.72;;
75928;SDS011;64606;44.062;2.986;2023-03-03T02:36:19;55.17;;;28.30;;
75928;SDS011;64606;44.062;2.986;2023-03-03T02:38:47;66.50;;;31.88;;
75928;SDS011;64606;44.062;2.986;2023-03-03T02:41:20;73.18;;;35.50;;
75928;SDS011;64606;44.062;2.986;2023-03-03T02:46:21;74.68;;;33.47;;
75928;SDS011;64606;44.062;2.986;2023-03-03T02:48:47;64.57;;;31.85;;
75928;SDS011;64606;44.062;2.986;2023-03-03T02:51:13;52.17;;;26.90;;
75928;SDS011;64606;44.062;2.986;2023-03-03T02:53:39;42.72;;;24.98;;
75928;SDS011;64606;44.062;2.986;2023-03-03T02:56:05;45.35;;;26.02;;
75928;SDS011;64606;44.062;2.986;2023-03-03T02:58:33;41.03;;;24.02;;
75928;SDS011;64606;44.062;2.986;2023-03-03T03:00:59;59.08;;;32.35;;
75928;SDS011;64606;44.062;2.986;2023-03-03T03:03:25;57.85;;;32.10;;
75928;SDS011;64606;44.062;2.986;2023-03-03T03:05:52;48.78;;;26.02;;
75928;SDS011;64606;44.062;2.986;2023-03-03T03:08:18;43.05;;;25.17;;
75928;SDS011;64606;44.062;2.986;2023-03-03T03:10:44;51.25;;;29.48;;
75928;SDS011;64606;44.062;2.986;2023-03-03T03:13:10;54.75;;;28.90;;
75928;SDS011;64606;44.062;2.986;2023-03-03T03:15:36;51.50;;;29.83;;
75928;SDS011;64606;44.062;2.986;2023-03-03T03:18:03;49.90;;;28.30;;
75928;SDS011;64606;44.062;2.986;2023-03-03T03:20:29;49.20;;;27.73;;
75928;SDS011;64606;44.062;2.986;2023-03-03T03:22:55;43.80;;;25.40;;
75928;SDS011;64606;44.062;2.986;2023-03-03T03:25:21;48.38;;;26.90;;
75928;SDS011;64606;44.062;2.986;2023-03-03T03:27:47;43.33;;;24.98;;
75928;SDS011;64606;44.062;2.986;2023-03-03T03:30:13;44.53;;;25.70;;
75928;SDS011;64606;44.062;2.986;2023-03-03T03:32:40;43.33;;;24.58;;
75928;SDS011;64606;44.062;2.986;2023-03-03T03:35:06;48.05;;;26.83;;
75928;SDS011;64606;44.062;2.986;2023-03-03T03:37:32;47.53;;;26.95;;
75928;SDS011;64606;44.062;2.986;2023-03-03T03:39:58;45.95;;;25.63;;
75928;SDS011;64606;44.062;2.986;2023-03-03T03:42:24;47.42;;;25.40;;
75928;SDS011;64606;44.062;2.986;2023-03-03T03:44:50;52.88;;;30.25;;
75928;SDS011;64606;44.062;2.986;2023-03-03T03:47:17;45.35;;;25.58;;
75928;SDS011;64606;44.062;2.986;2023-03-03T03:49:43;42.10;;;23.35;;
75928;SDS011;64606;44.062;2.986;2023-03-03T03:52:09;43.28;;;24.98;;
75928;SDS011;64606;44.062;2.986;2023-03-03T03:54:35;44.10;;;24.85;;
75928;SDS011;64606;44.062;2.986;2023-03-03T03:57:01;45.85;;;25.48;;
75928;SDS011;64606;44.062;2.986;2023-03-03T03:59:27;49.38;;;26.35;;
75928;SDS011;64606;44.062;2.986;2023-03-03T04:01:53;45.97;;;25.95;;
75928;SDS011;64606;44.062;2.986;2023-03-03T04:04:19;49.85;;;25.15;;
75928;SDS011;64606;44.062;2.986;2023-03-03T04:06:45;44.08;;;25.38;;
75928;SDS011;64606;44.062;2.986;2023-03-03T04:09:11;41.58;;;24.15;;
75928;SDS011;64606;44.062;2.986;2023-03-03T04:11:38;46.05;;;25.27;;
75928;SDS011;64606;44.062;2.986;2023-03-03T04:14:04;45.35;;;25.35;;
75928;SDS011;64606;44.062;2.986;2023-03-03T04:16:30;41.92;;;24.50;;
75928;SDS011;64606;44.062;2.986;2023-03-03T04:18:56;43.65;;;24.55;;
75928;SDS011;64606;44.062;2.986;2023-03-03T04:21:22;44.95;;;24.42;;
75928;SDS011;64606;44.062;2.986;2023-03-03T04:23:49;41.67;;;24.52;;
75928;SDS011;64606;44.062;2.986;2023-03-03T04:26:15;43.28;;;24.48;;
75928;SDS011;64606;44.062;2.986;2023-03-03T04:28:41;42.70;;;24.00;;
75928;SDS011;64606;44.062;2.986;2023-03-03T04:31:07;41.67;;;23.65;;
75928;SDS011;64606;44.062;2.986;2023-03-03T04:33:33;42.50;;;23.63;;
75928;SDS011;64606;44.062;2.986;2023-03-03T04:36:00;38.28;;;22.88;;
75928;SDS011;64606;44.062;2.986;2023-03-03T04:38:26;41.72;;;23.45;;
75928;SDS011;64606;44.062;2.986;2023-03-03T04:40:52;42.15;;;23.63;;
75928;SDS011;64606;44.062;2.986;2023-03-03T04:43:18;42.03;;;23.17;;
75928;SDS011;64606;44.062;2.986;2023-03-03T04:45:44;44.22;;;24.42;;
75928;SDS011;64606;44.062;2.986;2023-03-03T04:48:10;44.85;;;25.45;;
75928;SDS011;64606;44.062;2.986;2023-03-03T04:50:36;295.95;;;119.47;;
75928;SDS011;64606;44.062;2.986;2023-03-03T04:53:03;454.25;;;206.50;;
75928;SDS011;64606;44.062;2.986;2023-03-03T04:55:29;446.70;;;222.80;;
75928;SDS011;64606;44.062;2.986;2023-03-03T04:57:55;285.20;;;133.20;;
75928;SDS011;64606;44.062;2.986;2023-03-03T05:00:21;275.98;;;136.82;;
75928;SDS011;64606;44.062;2.986;2023-03-03T05:02:47;147.98;;;77.00;;
75928;SDS011;64606;44.062;2.986;2023-03-03T05:05:13;80.70;;;40.15;;
75928;SDS011;64606;44.062;2.986;2023-03-03T05:07:39;58.75;;;31.23;;
75928;SDS011;64606;44.062;2.986;2023-03-03T05:10:06;59.63;;;31.63;;
75928;SDS011;64606;44.062;2.986;2023-03-03T05:12:32;48.30;;;26.33;;
75928;SDS011;64606;44.062;2.986;2023-03-03T05:14:58;46.53;;;25.65;;
75928;SDS011;64606;44.062;2.986;2023-03-03T05:17:25;48.05;;;26.20;;
75928;SDS011;64606;44.062;2.986;2023-03-03T05:19:51;46.20;;;25.98;;
75928;SDS011;64606;44.062;2.986;2023-03-03T05:22:18;45.15;;;26.15;;
75928;SDS011;64606;44.062;2.986;2023-03-03T05:24:44;44.88;;;24.50;;
75928;SDS011;64606;44.062;2.986;2023-03-03T05:27:13;47.70;;;25.35;;
75928;SDS011;64606;44.062;2.986;2023-03-03T05:29:39;46.47;;;24.40;;
75928;SDS011;64606;44.062;2.986;2023-03-03T05:32:05;66.20;;;33.20;;
75928;SDS011;64606;44.062;2.986;2023-03-03T05:34:31;69.88;;;34.00;;
75928;SDS011;64606;44.062;2.986;2023-03-03T05:36:57;62.17;;;32.17;;
75928;SDS011;64606;44.062;2.986;2023-03-03T05:39:23;53.03;;;28.30;;
75928;SDS011;64606;44.062;2.986;2023-03-03T05:41:49;60.42;;;32.08;;
75928;SDS011;64606;44.062;2.986;2023-03-03T05:44:16;62.35;;;36.10;;
75928;SDS011;64606;44.062;2.986;2023-03-03T05:46:42;53.75;;;31.70;;
75928;SDS011;64606;44.062;2.986;2023-03-03T05:49:08;53.10;;;29.13;;
75928;SDS011;64606;44.062;2.986;2023-03-03T05:51:34;46.67;;;25.88;;
75928;SDS011;64606;44.062;2.986;2023-03-03T05:54:00;49.05;;;26.13;;
75928;SDS011;64606;44.062;2.986;2023-03-03T05:56:26;50.05;;;25.40;;
75928;SDS011;64606;44.062;2.986;2023-03-03T05:58:52;47.45;;;24.95;;
75928;SDS011;64606;44.062;2.986;2023-03-03T06:01:18;44.38;;;24.73;;
75928;SDS011;64606;44.062;2.986;2023-03-03T06:03:45;45.95;;;25.05;;
75928;SDS011;64606;44.062;2.986;2023-03-03T06:06:11;51.50;;;26.17;;
75928;SDS011;64606;44.062;2.986;2023-03-03T06:08:38;48.50;;;25.45;;
75928;SDS011;64606;44.062;2.986;2023-03-03T06:11:04;49.90;;;26.17;;
75928;SDS011;64606;44.062;2.986;2023-03-03T06:13:30;62.92;;;29.50;;
75928;SDS011;64606;44.062;2.986;2023-03-03T06:15:56;66.70;;;33.35;;
75928;SDS011;64606;44.062;2.986;2023-03-03T06:18:22;106.95;;;50.60;;
75928;SDS011;64606;44.062;2.986;2023-03-03T06:20:52;71.68;;;36.13;;
75928;SDS011;64606;44.062;2.986;2023-03-03T06:23:18;65.75;;;32.10;;
75928;SDS011;64606;44.062;2.986;2023-03-03T06:25:44;61.60;;;31.92;;
75928;SDS011;64606;44.062;2.986;2023-03-03T06:28:11;97.03;;;48.55;;
75928;SDS011;64606;44.062;2.986;2023-03-03T06:30:38;80.75;;;36.67;;
75928;SDS011;64606;44.062;2.986;2023-03-03T06:33:04;76.43;;;37.75;;
75928;SDS011;64606;44.062;2.986;2023-03-03T06:35:30;87.57;;;41.88;;
75928;SDS011;64606;44.062;2.986;2023-03-03T06:37:56;77.00;;;37.25;;
75928;SDS011;64606;44.062;2.986;2023-03-03T06:40:22;66.82;;;30.77;;
75928;SDS011;64606;44.062;2.986;2023-03-03T06:42:49;51.20;;;27.00;;
75928;SDS011;64606;44.062;2.986;2023-03-03T06:45:15;58.95;;;31.23;;
75928;SDS011;64606;44.062;2.986;2023-03-03T06:47:42;56.85;;;28.08;;
75928;SDS011;64606;44.062;2.986;2023-03-03T06:50:11;158.18;;;71.03;;
75928;SDS011;64606;44.062;2.986;2023-03-03T06:52:37;100.10;;;48.25;;
75928;SDS011;64606;44.062;2.986;2023-03-03T06:55:10;82.75;;;39.65;;
75928;SDS011;64606;44.062;2.986;2023-03-03T06:57:37;54.28;;;27.70;;
75928;SDS011;64606;44.062;2.986;2023-03-03T07:00:11;52.38;;;26.35;;
75928;SDS011;64606;44.062;2.986;2023-03-03T07:02:39;53.92;;;28.80;;
75928;SDS011;64606;44.062;2.986;2023-03-03T07:05:06;54.75;;;29.38;;
75928;SDS011;64606;44.062;2.986;2023-03-03T07:07:35;51.47;;;27.45;;
75928;SDS011;64606;44.062;2.986;2023-03-03T07:10:05;55.33;;;28.98;;
75928;SDS011;64606;44.062;2.986;2023-03-03T07:12:32;52.00;;;28.00;;
75928;SDS011;64606;44.062;2.986;2023-03-03T07:17:32;67.32;;;35.97;;
75928;SDS011;64606;44.062;2.986;2023-03-03T07:19:59;58.67;;;31.42;;
75928;SDS011;64606;44.062;2.986;2023-03-03T07:22:26;79.13;;;40.63;;
75928;SDS011;64606;44.062;2.986;2023-03-03T07:24:56;72.57;;;38.45;;
75928;SDS011;64606;44.062;2.986;2023-03-03T07:27:27;72.38;;;37.67;;
75928;SDS011;64606;44.062;2.986;2023-03-03T07:29:54;54.58;;;28.90;;
75928;SDS011;64606;44.062;2.986;2023-03-03T07:32:32;48.17;;;25.65;;
75928;SDS011;64606;44.062;2.986;2023-03-03T07:35:03;61.75;;;32.25;;
75928;SDS011;64606;44.062;2.986;2023-03-03T07:37:36;119.38;;;48.15;;
75928;SDS011;64606;44.062;2.986;2023-03-03T07:40:05;183.23;;;62.75;;
75928;SDS011;64606;44.062;2.986;2023-03-03T07:42:46;86.30;;;36.95;;
75928;SDS011;64606;44.062;2.986;2023-03-03T07:45:28;63.35;;;30.27;;
75928;SDS011;64606;44.062;2.986;2023-03-03T07:50:41;71.80;;;35.53;;
75928;SDS011;64606;44.062;2.986;2023-03-03T07:53:28;73.63;;;36.80;;
75928;SDS011;64606;44.062;2.986;2023-03-03T07:55:53;64.57;;;33.17;;
75928;SDS011;64606;44.062;2.986;2023-03-03T07:58:20;59.42;;;30.58;;
75928;SDS011;64606;44.062;2.986;2023-03-03T08:03:17;54.35;;;27.92;;
75928;SDS011;64606;44.062;2.986;2023-03-03T08:05:46;53.28;;;27.67;;
75928;SDS011;64606;44.062;2.986;2023-03-03T08:11:14;49.25;;;25.65;;
75928;SDS011;64606;44.062;2.986;2023-03-03T08:13:40;51.85;;;27.52;;
75928;SDS011;64606;44.062;2.986;2023-03-03T08:21:21;52.28;;;28.40;;
75928;SDS011;64606;44.062;2.986;2023-03-03T08:23:46;53.10;;;28.50;;
75928;SDS011;64606;44.062;2.986;2023-03-03T08:26:15;54.80;;;28.42;;
75928;SDS011;64606;44.062;2.986;2023-03-03T08:28:42;62.10;;;29.67;;
75928;SDS011;64606;44.062;2.986;2023-03-03T08:31:08;60.47;;;32.03;;
75928;SDS011;64606;44.062;2.986;2023-03-03T08:33:34;61.25;;;32.85;;
75928;SDS011;64606;44.062;2.986;2023-03-03T08:36:00;59.80;;;32.72;;
75928;SDS011;64606;44.062;2.986;2023-03-03T08:38:26;65.07;;;34.28;;
75928;SDS011;64606;44.062;2.986;2023-03-03T08:40:53;60.70;;;32.45;;
75928;SDS011;64606;44.062;2.986;2023-03-03T08:43:19;56.85;;;30.80;;
75928;SDS011;64606;44.062;2.986;2023-03-03T08:45:49;63.47;;;33.72;;
75928;SDS011;64606;44.062;2.986;2023-03-03T08:48:16;67.15;;;33.38;;
75928;SDS011;64606;44.062;2.986;2023-03-03T08:50:42;61.38;;;31.63;;
75928;SDS011;64606;44.062;2.986;2023-03-03T08:53:09;59.58;;;31.02;;
75928;SDS011;64606;44.062;2.986;2023-03-03T08:55:36;62.30;;;33.15;;
75928;SDS011;64606;44.062;2.986;2023-03-03T08:58:02;63.33;;;32.35;;
75928;SDS011;64606;44.062;2.986;2023-03-03T09:00:28;60.70;;;30.65;;
75928;SDS011;64606;44.062;2.986;2023-03-03T09:02:54;50.85;;;27.35;;
75928;SDS011;64606;44.062;2.986;2023-03-03T09:05:21;52.53;;;27.02;;
75928;SDS011;64606;44.062;2.986;2023-03-03T09:07:47;52.35;;;26.73;;
75928;SDS011;64606;44.062;2.986;2023-03-03T09:10:17;47.53;;;25.02;;
75928;SDS011;64606;44.062;2.986;2023-03-03T09:12:44;49.13;;;27.40;;
75928;SDS011;64606;44.062;2.986;2023-03-03T09:17:46;48.60;;;25.52;;
75928;SDS011;64606;44.062;2.986;2023-03-03T09:21:13;51.20;;;26.17;;
75928;SDS011;64606;44.062;2.986;2023-03-03T09:25:46;49.95;;;26.83;;
75928;SDS011;64606;44.062;2.986;2023-03-03T09:28:26;48.83;;;25.23;;
75928;SDS011;64606;44.062;2.986;2023-03-03T09:30:53;45.05;;;24.75;;
75928;SDS011;64606;44.062;2.986;2023-03-03T09:35:49;46.38;;;25.80;;
75928;SDS011;64606;44.062;2.986;2023-03-03T09:40:52;43.10;;;24.67;;
75928;SDS011;64606;44.062;2.986;2023-03-03T09:53:48;41.90;;;24.30;;
75928;SDS011;64606;44.062;2.986;2023-03-03T09:56:29;43.42;;;24.08;;
75928;SDS011;64606;44.062;2.986;2023-03-03T09:59:17;41.78;;;24.60;;
75928;SDS011;64606;44.062;2.986;2023-03-03T10:12:17;44.78;;;24.52;;
75928;SDS011;64606;44.062;2.986;2023-03-03T10:14:42;44.30;;;24.48;;
75928;SDS011;64606;44.062;2.986;2023-03-03T10:22:53;40.25;;;21.33;;
75928;SDS011;64606;44.062;2.986;2023-03-03T10:30:52;39.97;;;21.73;;
75928;SDS011;64606;44.062;2.986;2023-03-03T10:36:07;36.35;;;20.38;;
75928;SDS011;64606;44.062;2.986;2023-03-03T10:41:21;35.10;;;19.67;;
75928;SDS011;64606;44.062;2.986;2023-03-03T10:46:37;33.47;;;17.85;;
75928;SDS011;64606;44.062;2.986;2023-03-03T11:00:14;29.45;;;16.45;;
75928;SDS011;64606;44.062;2.986;2023-03-03T11:08:13;25.80;;;15.07;;
75928;SDS011;64606;44.062;2.986;2023-03-03T11:10:53;24.83;;;13.10;;
75928;SDS011;64606;44.062;2.986;2023-03-03T11:34:55;29.98;;;16.25;;
75928;SDS011;64606;44.062;2.986;2023-03-03T11:37:26;27.75;;;14.18;;
75928;SDS011;64606;44.062;2.986;2023-03-03T11:39:55;30.20;;;17.23;;
75928;SDS011;64606;44.062;2.986;2023-03-03T11:47:41;26.75;;;14.95;;
75928;SDS011;64606;44.062;2.986;2023-03-03T11:50:14;28.00;;;15.57;;
75928;SDS011;64606;44.062;2.986;2023-03-03T11:53:06;27.95;;;15.73;;
75928;SDS011;64606;44.062;2.986;2023-03-03T12:03:06;30.05;;;15.00;;
75928;SDS011;64606;44.062;2.986;2023-03-03T12:05:53;29.33;;;15.07;;
75928;SDS011;64606;44.062;2.986;2023-03-03T12:10:58;24.17;;;14.20;;
75928;SDS011;64606;44.062;2.986;2023-03-03T12:13:41;25.23;;;13.73;;
75928;SDS011;64606;44.062;2.986;2023-03-03T12:16:14;25.10;;;14.35;;
75928;SDS011;64606;44.062;2.986;2023-03-03T12:21:14;24.95;;;13.82;;
75928;SDS011;64606;44.062;2.986;2023-03-03T12:23:54;23.65;;;12.85;;
75928;SDS011;64606;44.062;2.986;2023-03-03T12:28:57;24.55;;;13.63;;
75928;SDS011;64606;44.062;2.986;2023-03-03T12:34:00;28.42;;;14.63;;
75928;SDS011;64606;44.062;2.986;2023-03-03T12:39:01;26.73;;;14.73;;
75928;SDS011;64606;44.062;2.986;2023-03-03T12:46:51;29.63;;;14.77;;
75928;SDS011;64606;44.062;2.986;2023-03-03T12:49:18;26.13;;;14.52;;
75928;SDS011;64606;44.062;2.986;2023-03-03T12:52:01;22.90;;;13.32;;
75928;SDS011;64606;44.062;2.986;2023-03-03T12:57:00;22.40;;;12.65;;
75928;SDS011;64606;44.062;2.986;2023-03-03T12:59:34;23.17;;;13.23;;
75928;SDS011;64606;44.062;2.986;2023-03-03T13:02:19;23.00;;;13.60;;
75928;SDS011;64606;44.062;2.986;2023-03-03T13:09:59;22.45;;;12.80;;
75928;SDS011;64606;44.062;2.986;2023-03-03T13:17:27;25.88;;;13.35;;
75928;SDS011;64606;44.062;2.986;2023-03-03T13:19:56;22.67;;;13.18;;
75928;SDS011;64606;44.062;2.986;2023-03-03T13:27:56;20.88;;;12.52;;
75928;SDS011;64606;44.062;2.986;2023-03-03T13:30:32;19.65;;;11.98;;
75928;SDS011;64606;44.062;2.986;2023-03-03T13:32:59;20.75;;;11.65;;
75928;SDS011;64606;44.062;2.986;2023-03-03T13:35:31;20.73;;;12.18;;
75928;SDS011;64606;44.062;2.986;2023-03-03T13:37:58;22.20;;;12.52;;
75928;SDS011;64606;44.062;2.986;2023-03-03T13:43:14;23.00;;;13.90;;
75928;SDS011;64606;44.062;2.986;2023-03-03T13:50:56;22.97;;;12.37;;
75928;SDS011;64606;44.062;2.986;2023-03-03T13:58:29;21.90;;;12.20;;
75928;SDS011;64606;44.062;2.986;2023-03-03T14:01:20;22.63;;;12.90;;
75928;SDS011;64606;44.062;2.986;2023-03-03T14:06:29;24.27;;;13.73;;
75928;SDS011;64606;44.062;2.986;2023-03-03T14:08:59;23.40;;;13.05;;
75928;SDS011;64606;44.062;2.986;2023-03-03T14:14:26;20.02;;;11.73;;
75928;SDS011;64606;44.062;2.986;2023-03-03T14:16:56;21.08;;;11.82;;
75928;SDS011;64606;44.062;2.986;2023-03-03T14:22:03;22.70;;;12.93;;
75928;SDS011;64606;44.062;2.986;2023-03-03T14:24:30;26.17;;;14.15;;
75928;SDS011;64606;44.062;2.986;2023-03-03T14:27:00;24.08;;;13.18;;
75928;SDS011;64606;44.062;2.986;2023-03-03T14:31:56;23.27;;;13.38;;
75928;SDS011;64606;44.062;2.986;2023-03-03T14:36:49;19.98;;;11.07;;
75928;SDS011;64606;44.062;2.986;2023-03-03T14:41:50;18.42;;;11.43;;
75928;SDS011;64606;44.062;2.986;2023-03-03T14:46:43;15.75;;;9.52;;
75928;SDS011;64606;44.062;2.986;2023-03-03T14:49:14;20.13;;;12.43;;
75928;SDS011;64606;44.062;2.986;2023-03-03T14:54:08;21.27;;;11.90;;
75928;SDS011;64606;44.062;2.986;2023-03-03T14:56:38;26.77;;;14.85;;
75928;SDS011;64606;44.062;2.986;2023-03-03T14:59:20;20.88;;;10.80;;
75928;SDS011;64606;44.062;2.986;2023-03-03T15:04:24;21.83;;;12.57;;
75928;SDS011;64606;44.062;2.986;2023-03-03T15:06:51;18.27;;;10.73;;
75928;SDS011;64606;44.062;2.986;2023-03-03T15:09:25;20.13;;;11.05;;
75928;SDS011;64606;44.062;2.986;2023-03-03T15:11:57;19.00;;;11.85;;
75928;SDS011;64606;44.062;2.986;2023-03-03T15:14:30;20.17;;;11.63;;
75928;SDS011;64606;44.062;2.986;2023-03-03T15:16:57;15.35;;;9.15;;
75928;SDS011;64606;44.062;2.986;2023-03-03T15:19:40;18.63;;;10.68;;
75928;SDS011;64606;44.062;2.986;2023-03-03T15:25:11;16.77;;;10.27;;
75928;SDS011;64606;44.062;2.986;2023-03-03T15:27:43;17.63;;;10.52;;
75928;SDS011;64606;44.062;2.986;2023-03-03T15:30:14;17.65;;;11.25;;
75928;SDS011;64606;44.062;2.986;2023-03-03T15:32:52;19.63;;;11.05;;
75928;SDS011;64606;44.062;2.986;2023-03-03T15:45:30;17.75;;;10.20;;
75928;SDS011;64606;44.062;2.986;2023-03-03T15:55:27;20.45;;;10.98;;
75928;SDS011;64606;44.062;2.986;2023-03-03T16:05:49;20.83;;;11.23;;
75928;SDS011;64606;44.062;2.986;2023-03-03T16:09:02;18.83;;;10.57;;
75928;SDS011;64606;44.062;2.986;2023-03-03T16:13:45;18.00;;;10.52;;
75928;SDS011;64606;44.062;2.986;2023-03-03T16:26:52;20.77;;;12.27;;
75928;SDS011;64606;44.062;2.986;2023-03-03T16:29:39;19.88;;;11.40;;
75928;SDS011;64606;44.062;2.986;2023-03-03T16:34:40;21.80;;;12.00;;
75928;SDS011;64606;44.062;2.986;2023-03-03T16:42:27;20.40;;;11.68;;
75928;SDS011;64606;44.062;2.986;2023-03-03T16:47:32;18.90;;;11.48;;
75928;SDS011;64606;44.062;2.986;2023-03-03T16:50:13;20.25;;;11.35;;
75928;SDS011;64606;44.062;2.986;2023-03-03T16:53:03;20.50;;;11.63;;
75928;SDS011;64606;44.062;2.986;2023-03-03T16:55:31;22.95;;;11.80;;
75928;SDS011;64606;44.062;2.986;2023-03-03T17:01:16;19.55;;;11.88;;
75928;SDS011;64606;44.062;2.986;2023-03-03T17:03:32;21.50;;;12.23;;
75928;SDS011;64606;44.062;2.986;2023-03-03T17:11:05;18.98;;;11.15;;
75928;SDS011;64606;44.062;2.986;2023-03-03T17:19:07;24.35;;;14.45;;
75928;SDS011;64606;44.062;2.986;2023-03-03T17:24:28;23.27;;;11.63;;
75928;SDS011;64606;44.062;2.986;2023-03-03T17:47:24;19.35;;;11.50;;
75928;SDS011;64606;44.062;2.986;2023-03-03T17:50:20;19.75;;;11.38;;
75928;SDS011;64606;44.062;2.986;2023-03-03T17:58:15;20.17;;;11.55;;
75928;SDS011;64606;44.062;2.986;2023-03-03T18:21:15;104.53;;;48.85;;
75928;SDS011;64606;44.062;2.986;2023-03-03T18:23:43;56.60;;;32.25;;
75928;SDS011;64606;44.062;2.986;2023-03-03T18:29:39;37.78;;;18.85;;
75928;SDS011;64606;44.062;2.986;2023-03-03T18:36:55;69.95;;;37.97;;
75928;SDS011;64606;44.062;2.986;2023-03-03T18:44:33;24.73;;;14.45;;
75928;SDS011;64606;44.062;2.986;2023-03-03T18:46:59;24.20;;;12.73;;
75928;SDS011;64606;44.062;2.986;2023-03-03T18:52:27;23.95;;;13.68;;
75928;SDS011;64606;44.062;2.986;2023-03-03T18:57:40;20.98;;;11.68;;
75928;SDS011;64606;44.062;2.986;2023-03-03T19:00:27;24.20;;;13.55;;
75928;SDS011;64606;44.062;2.986;2023-03-03T19:02:58;27.30;;;15.18;;
75928;SDS011;64606;44.062;2.986;2023-03-03T19:05:26;26.05;;;15.20;;
75928;SDS011;64606;44.062;2.986;2023-03-03T19:07:58;28.58;;;15.68;;
75928;SDS011;64606;44.062;2.986;2023-03-03T19:13:33;31.00;;;16.13;;
75928;SDS011;64606;44.062;2.986;2023-03-03T19:15:56;26.13;;;13.10;;
75928;SDS011;64606;44.062;2.986;2023-03-03T19:18:26;33.50;;;17.00;;
75928;SDS011;64606;44.062;2.986;2023-03-03T19:23:24;29.30;;;14.80;;
75928;SDS011;64606;44.062;2.986;2023-03-03T19:28:37;40.22;;;19.65;;
75928;SDS011;64606;44.062;2.986;2023-03-03T19:31:12;28.73;;;16.00;;
75928;SDS011;64606;44.062;2.986;2023-03-03T19:36:35;58.70;;;23.90;;
75928;SDS011;64606;44.062;2.986;2023-03-03T19:39:12;43.42;;;21.98;;
75928;SDS011;64606;44.062;2.986;2023-03-03T19:41:54;38.38;;;17.75;;
75928;SDS011;64606;44.062;2.986;2023-03-03T19:57:45;40.10;;;20.48;;
75928;SDS011;64606;44.062;2.986;2023-03-03T20:03:07;56.20;;;32.55;;
75928;SDS011;64606;44.062;2.986;2023-03-03T20:05:57;39.47;;;22.42;;
75928;SDS011;64606;44.062;2.986;2023-03-03T20:21:33;50.95;;;26.63;;
75928;SDS011;64606;44.062;2.986;2023-03-03T20:26:30;48.63;;;26.67;;
75928;SDS011;64606;44.062;2.986;2023-03-03T20:29:05;39.63;;;20.92;;
75928;SDS011;64606;44.062;2.986;2023-03-03T20:39:01;46.30;;;23.80;;
75928;SDS011;64606;44.062;2.986;2023-03-03T20:46:49;53.15;;;27.92;;
75928;SDS011;64606;44.062;2.986;2023-03-03T20:51:57;33.38;;;20.67;;
75928;SDS011;64606;44.062;2.986;2023-03-03T21:05:24;28.83;;;14.90;;
75928;SDS011;64606;44.062;2.986;2023-03-03T21:07:58;28.13;;;14.73;;
75928;SDS011;64606;44.062;2.986;2023-03-03T21:10:31;25.10;;;14.00;;
75928;SDS011;64606;44.062;2.986;2023-03-03T21:15:52;30.50;;;14.88;;
75928;SDS011;64606;44.062;2.986;2023-03-03T21:18:19;27.77;;;14.93;;
75928;SDS011;64606;44.062;2.986;2023-03-03T21:20:46;27.83;;;13.68;;
75928;SDS011;64606;44.062;2.986;2023-03-03T21:23:12;28.85;;;15.07;;
75928;SDS011;64606;44.062;2.986;2023-03-03T21:28:23;28.15;;;15.10;;